Time;durP1;ratioP1;P1;durP2;ratioP2;P2;SDS_P1;SDS_P2;PMS_P1;PMS_P2;Temp;Humidity;BMP_temperature;BMP_pressure;BME280_temperature;BME280_humidity;BME280_pressure;Samples;Min_cycle;Max_cycle;Signal;HPM_P1;HPM_P2
2021/12/22 00:00:11;;;;;;;;;;;0.10;99.90;;;;;;6159409;23;19920;-86
2021/12/22 00:02:37;;;;;;;;;;;-2.20;99.90;;;;;;6155927;23;19924;-88
2021/12/22 00:05:03;;;;;;;;;;;-1.00;99.90;;;;;;6153698;23;19921;-86
2021/12/22 00:07:28;;;;;;;;;;;-2.00;99.90;;;;;;6154523;23;19924;-85
2021/12/22 00:10:03;;;;;;;;;;;-1.10;99.90;;;;;;6155604;23;19999;-87
2021/12/22 00:12:44;;;;;;;;;;;-2.00;99.90;;;;;;6154256;23;20644;-86
2021/12/22 00:15:10;;;;;;;;;;;-2.00;99.90;;;;;;6154081;23;19926;-87
2021/12/22 00:17:36;;;;;;;;;;;-1.40;99.90;;;;;;6178712;23;20349;-86
2021/12/22 00:20:02;;;;;;;;;;;-2.10;99.90;;;;;;6154705;23;19952;-86
2021/12/22 00:22:40;;;;;;;;;;;-1.80;99.90;;;;;;6156175;23;19995;-85
2021/12/22 00:25:12;;;;;;;;;;;-2.10;99.90;;;;;;6156156;23;19961;-86
2021/12/22 00:27:47;;;;;;;;;;;-4.20;99.90;;;;;;6155155;23;19931;-86
2021/12/22 00:30:13;;;;;;;;;;;-3.50;99.90;;;;;;6152990;23;19951;-86
2021/12/22 00:32:40;;;;;;;;;;;-2.10;99.90;;;;;;6152716;23;19955;-86
2021/12/22 00:35:05;;;;;;;;;;;-2.10;99.90;;;;;;6180385;23;19920;-86
2021/12/22 00:37:34;;;;;;;;;;;-2.10;99.90;;;;;;6152606;23;19924;-86
2021/12/22 00:40:09;;;;;;;;;;;-2.10;99.90;;;;;;6154346;23;19920;-85
2021/12/22 00:42:35;;;;;;;;;;;-2.10;99.90;;;;;;6151364;23;20003;-85
2021/12/22 00:45:02;;;;;;;;;;;-2.40;99.90;;;;;;6152770;23;19999;-86
2021/12/22 00:47:29;;;;;;;;;;;-2.10;99.90;;;;;;6151138;23;20011;-85
2021/12/22 00:50:14;;;;;;;;;;;-2.30;99.90;;;;;;6152992;23;19921;-86
2021/12/22 00:52:40;;;;;;;;;;;-2.90;99.90;;;;;;6152709;23;20297;-85
2021/12/22 00:55:06;;;;;;;;;;;-2.10;99.90;;;;;;6151867;23;19924;-86
2021/12/22 00:57:33;;;;;;;;;;;-2.10;99.90;;;;;;6152658;23;19943;-86
2021/12/22 00:59:59;;;;;;;;;;;-2.10;99.90;;;;;;6151959;23;19920;-85
2021/12/22 01:02:24;;;;;;;;;;;-2.20;99.90;;;;;;6152760;23;19963;-86
2021/12/22 01:04:50;;;;;;;;;;;-2.20;99.90;;;;;;6151241;23;19939;-86
2021/12/22 01:07:16;;;;;;;;;;;-2.20;99.90;;;;;;6153976;23;20082;-85
2021/12/22 01:09:43;;;;;;;;;;;-2.20;99.90;;;;;;6154189;23;19954;-85
2021/12/22 01:12:08;;;;;;;;;;;-2.20;99.90;;;;;;6152184;23;19971;-85
2021/12/22 01:14:34;;;;;;;;;;;-2.20;99.90;;;;;;6152894;23;20618;-85
2021/12/22 01:17:02;;;;;;;;;;;-2.20;99.90;;;;;;6154132;23;19967;-85
2021/12/22 01:19:38;;;;;;;;;;;-2.20;99.90;;;;;;6153530;23;19923;-85
2021/12/22 01:22:26;;;;;;;;;;;-2.30;99.90;;;;;;6152559;23;19943;-85
2021/12/22 01:25:00;;;;;;;;;;;-2.30;99.90;;;;;;6152922;23;19937;-85
2021/12/22 01:27:29;;;;;;;;;;;-2.30;99.90;;;;;;6153243;23;19924;-85
2021/12/22 01:29:55;;;;;;;;;;;-2.30;99.90;;;;;;6179274;23;19927;-86
2021/12/22 01:32:20;;;;;;;;;;;-2.30;99.90;;;;;;6153258;23;19920;-85
2021/12/22 01:34:46;;;;;;;;;;;-2.30;99.90;;;;;;6152733;23;19920;-85
2021/12/22 01:37:11;;;;;;;;;;;-2.30;99.90;;;;;;6151793;23;20397;-85
2021/12/22 01:39:37;;;;;;;;;;;-2.40;99.90;;;;;;6149545;23;20479;-85
2021/12/22 01:42:03;;;;;;;;;;;-2.30;99.90;;;;;;6153428;23;19920;-85
2021/12/22 01:44:46;;;;;;;;;;;-2.40;99.90;;;;;;6154019;23;19978;-85
2021/12/22 01:49:57;;;;;;;;;;;-2.40;99.90;;;;;;6152174;23;19924;-84
2021/12/22 01:52:23;;;;;;;;;;;-2.40;99.90;;;;;;6156916;23;19932;-85
2021/12/22 01:54:50;;;;;;;;;;;-2.50;99.90;;;;;;6153148;23;20329;-86
2021/12/22 01:57:19;;;;;;;;;;;-2.50;99.90;;;;;;6180140;23;20236;-84
2021/12/22 01:59:46;;;;;;;;;;;-2.50;99.90;;;;;;6153137;23;19962;-84
2021/12/22 02:02:12;;;;;;;;;;;-2.50;99.90;;;;;;6175044;23;20015;-84
2021/12/22 02:04:38;;;;;;;;;;;-2.50;99.90;;;;;;6151454;23;20194;-84
2021/12/22 02:07:04;;;;;;;;;;;-2.50;99.90;;;;;;6153667;23;19931;-85
2021/12/22 02:11:55;;;;;;;;;;;-2.50;99.90;;;;;;6152771;23;19928;-84
2021/12/22 02:14:21;;;;;;;;;;;-2.50;99.90;;;;;;6152023;23;19920;-83
2021/12/22 02:16:47;;;;;;;;;;;-2.50;99.90;;;;;;6148932;23;19924;-83
2021/12/22 02:19:14;;;;;;;;;;;-2.50;99.90;;;;;;6178184;23;19920;-83
2021/12/22 02:21:46;;;;;;;;;;;-2.50;99.90;;;;;;6151349;23;19924;-83
2021/12/22 02:24:12;;;;;;;;;;;-2.50;99.90;;;;;;6178316;23;20000;-83
2021/12/22 02:26:43;;;;;;;;;;;-2.50;99.90;;;;;;6150940;23;20019;-84
2021/12/22 02:29:19;;;;;;;;;;;-2.50;99.90;;;;;;6152373;23;19931;-84
2021/12/22 02:31:50;;;;;;;;;;;-2.50;99.90;;;;;;6149574;23;20014;-84
2021/12/22 02:34:16;;;;;;;;;;;-2.50;99.90;;;;;;6150901;23;20066;-84
2021/12/22 02:36:43;;;;;;;;;;;-2.50;99.90;;;;;;6153275;23;19974;-84
2021/12/22 02:39:08;;;;;;;;;;;-2.50;99.90;;;;;;6152855;23;20178;-83
2021/12/22 02:41:36;;;;;;;;;;;-2.50;99.90;;;;;;6152285;23;20007;-84
2021/12/22 02:44:02;;;;;;;;;;;-2.50;99.90;;;;;;6152796;23;19947;-83
2021/12/22 02:46:30;;;;;;;;;;;-2.50;99.90;;;;;;6149814;23;20482;-83
2021/12/22 02:48:57;;;;;;;;;;;-2.60;99.90;;;;;;6150547;23;19966;-82
2021/12/22 02:51:23;;;;;;;;;;;-2.60;99.90;;;;;;6149568;23;19983;-82
2021/12/22 02:56:37;;;;;;;;;;;-2.60;99.90;;;;;;6151671;23;19947;-83
2021/12/22 02:59:30;;;;;;;;;;;-2.60;99.90;;;;;;6152775;23;19925;-82
2021/12/22 03:04:59;;;;;;;;;;;-2.70;99.90;;;;;;6063633;23;19928;-83
2021/12/22 03:07:29;;;;;;;;;;;-2.70;99.90;;;;;;6086286;23;19925;-83
2021/12/22 03:10:00;;;;;;;;;;;-2.70;99.90;;;;;;6120425;23;19917;-81
2021/12/22 03:12:27;;;;;;;;;;;-2.70;99.90;;;;;;6150133;23;19924;-82
2021/12/22 03:14:53;;;;;;;;;;;-2.70;99.90;;;;;;6151667;23;19995;-84
2021/12/22 03:17:18;;;;;;;;;;;-2.70;99.90;;;;;;6149981;23;19986;-83
2021/12/22 03:19:44;;;;;;;;;;;-2.80;99.90;;;;;;6153340;23;20003;-81
2021/12/22 03:22:10;;;;;;;;;;;-2.70;99.90;;;;;;6177260;23;19920;-82
2021/12/22 03:24:36;;;;;;;;;;;-2.80;99.90;;;;;;6153161;23;20356;-82
2021/12/22 03:27:03;;;;;;;;;;;-2.80;99.90;;;;;;6152867;23;20408;-82
2021/12/22 03:29:30;;;;;;;;;;;-2.80;99.90;;;;;;6154202;23;19951;-85
2021/12/22 03:31:59;;;;;;;;;;;-2.80;99.90;;;;;;6154356;23;19924;-85
2021/12/22 03:34:25;;;;;;;;;;;-2.80;99.90;;;;;;6153995;23;20063;-82
2021/12/22 03:36:50;;;;;;;;;;;-2.80;99.90;;;;;;6151542;23;20055;-85
2021/12/22 03:39:16;;;;;;;;;;;-2.80;99.90;;;;;;6154617;23;19924;-84
2021/12/22 03:41:42;;;;;;;;;;;-2.90;99.90;;;;;;6152675;23;19920;-84
2021/12/22 03:44:08;;;;;;;;;;;-2.90;99.90;;;;;;6151110;23;19948;-83
2021/12/22 03:46:34;;;;;;;;;;;-1.80;99.90;;;;;;6153746;23;19924;-84
2021/12/22 03:49:00;;;;;;;;;;;-2.90;99.90;;;;;;6151677;23;20254;-84
2021/12/22 03:51:26;;;;;;;;;;;-2.90;99.90;;;;;;6153476;23;19979;-83
2021/12/22 03:53:52;;;;;;;;;;;-2.90;99.90;;;;;;6154740;23;20315;-84
2021/12/22 03:56:21;;;;;;;;;;;-2.90;99.90;;;;;;6153786;23;20279;-84
2021/12/22 03:58:46;;;;;;;;;;;-3.00;99.90;;;;;;6179039;23;19944;-84
2021/12/22 04:01:12;;;;;;;;;;;-3.00;99.90;;;;;;6154181;23;20289;-84
2021/12/22 04:03:40;;;;;;;;;;;-3.00;99.90;;;;;;6153321;23;20415;-84
2021/12/22 04:06:05;;;;;;;;;;;-3.00;99.90;;;;;;6150400;23;19920;-84
2021/12/22 04:08:40;;;;;;;;;;;-3.10;99.90;;;;;;6183864;23;20023;-84
2021/12/22 04:11:09;;;;;;;;;;;-3.00;99.90;;;;;;6178543;23;19927;-83
2021/12/22 04:13:34;;;;;;;;;;;-3.10;99.90;;;;;;6152348;23;19924;-83
2021/12/22 04:16:00;;;;;;;;;;;-3.10;99.90;;;;;;6152657;23;19920;-81
2021/12/22 04:18:25;;;;;;;;;;;-3.10;99.90;;;;;;6153448;23;20290;-82
2021/12/22 04:20:51;;;;;;;;;;;-3.10;99.90;;;;;;6177965;23;20328;-82
2021/12/22 04:23:16;;;;;;;;;;;-3.10;99.90;;;;;;6153989;23;19931;-82
2021/12/22 04:25:42;;;;;;;;;;;-3.20;99.90;;;;;;6152589;23;19940;-81
2021/12/22 04:28:09;;;;;;;;;;;-3.10;99.90;;;;;;6151586;23;19924;-81
2021/12/22 04:30:37;;;;;;;;;;;-3.20;99.90;;;;;;6151325;23;19924;-82
2021/12/22 04:33:03;;;;;;;;;;;-3.20;99.90;;;;;;6152432;23;19932;-82
2021/12/22 04:35:28;;;;;;;;;;;-3.20;99.90;;;;;;6152711;23;20070;-81
2021/12/22 04:37:54;;;;;;;;;;;-3.20;99.90;;;;;;6152660;23;19920;-82
2021/12/22 04:40:21;;;;;;;;;;;-3.20;99.90;;;;;;6152626;23;19942;-82
2021/12/22 04:42:47;;;;;;;;;;;-3.20;99.90;;;;;;6150081;23;20003;-81
2021/12/22 04:45:13;;;;;;;;;;;-3.20;99.90;;;;;;6148257;23;19962;-81
2021/12/22 04:47:40;;;;;;;;;;;-3.30;99.90;;;;;;6154299;23;19962;-82
2021/12/22 04:50:13;;;;;;;;;;;-3.30;99.90;;;;;;6153741;23;19920;-81
2021/12/22 04:52:46;;;;;;;;;;;-3.30;99.90;;;;;;6157809;23;19946;-85
2021/12/22 04:55:12;;;;;;;;;;;-3.30;99.90;;;;;;6157472;23;19978;-81
2021/12/22 04:57:37;;;;;;;;;;;-3.30;99.90;;;;;;6179288;23;20311;-82
2021/12/22 05:00:07;;;;;;;;;;;-3.40;99.90;;;;;;6153742;23;19924;-82
2021/12/22 05:02:36;;;;;;;;;;;-3.40;99.90;;;;;;6153305;23;20345;-82
2021/12/22 05:05:01;;;;;;;;;;;-3.40;99.90;;;;;;6154003;23;19943;-82
2021/12/22 05:07:27;;;;;;;;;;;-3.40;99.90;;;;;;6152583;23;20442;-82
2021/12/22 05:09:52;;;;;;;;;;;-3.40;99.90;;;;;;6154004;23;19924;-82
2021/12/22 05:12:18;;;;;;;;;;;-3.40;99.90;;;;;;6154566;23;19985;-82
2021/12/22 05:14:49;;;;;;;;;;;-3.50;99.90;;;;;;6154190;23;19921;-83
2021/12/22 05:17:21;;;;;;;;;;;-3.50;99.90;;;;;;6153429;23;19924;-83
2021/12/22 05:19:47;;;;;;;;;;;-2.40;99.90;;;;;;6154219;23;19955;-82
2021/12/22 05:22:12;;;;;;;;;;;-3.50;99.90;;;;;;6152149;23;20250;-83
2021/12/22 05:24:38;;;;;;;;;;;-3.60;99.90;;;;;;6153504;23;20352;-82
2021/12/22 05:27:08;;;;;;;;;;;-3.60;99.90;;;;;;6153366;23;19920;-83
2021/12/22 05:29:34;;;;;;;;;;;-3.60;99.90;;;;;;6151450;23;20059;-83
2021/12/22 05:32:01;;;;;;;;;;;-3.50;99.90;;;;;;6153238;23;20457;-83
2021/12/22 05:34:27;;;;;;;;;;;-3.60;99.90;;;;;;6154076;23;19924;-82
2021/12/22 05:36:52;;;;;;;;;;;-3.70;99.90;;;;;;6154344;23;19975;-83
2021/12/22 05:39:18;;;;;;;;;;;-3.70;99.90;;;;;;6157791;23;20183;-84
2021/12/22 05:41:43;;;;;;;;;;;-3.70;99.90;;;;;;6155665;23;19928;-84
2021/12/22 05:44:10;;;;;;;;;;;-3.50;99.90;;;;;;6179373;23;20221;-83
2021/12/22 05:46:35;;;;;;;;;;;-3.70;99.90;;;;;;6150714;23;19932;-83
2021/12/22 05:49:01;;;;;;;;;;;-3.70;99.90;;;;;;6152879;23;19920;-84
2021/12/22 05:51:28;;;;;;;;;;;-3.80;99.90;;;;;;6152054;23;19931;-84
2021/12/22 05:53:53;;;;;;;;;;;-3.80;99.90;;;;;;6151876;23;19927;-83
2021/12/22 05:56:19;;;;;;;;;;;-3.80;99.90;;;;;;6153351;23;19920;-84
2021/12/22 05:58:45;;;;;;;;;;;-3.80;99.90;;;;;;6152914;23;19920;-85
2021/12/22 06:01:10;;;;;;;;;;;-3.80;99.90;;;;;;6150360;23;19925;-85
2021/12/22 06:03:36;;;;;;;;;;;-3.90;99.90;;;;;;6151437;23;19951;-84
2021/12/22 06:06:02;;;;;;;;;;;-3.60;99.90;;;;;;6147948;23;19924;-83
2021/12/22 06:08:27;;;;;;;;;;;-3.90;99.90;;;;;;6153874;23;19916;-83
2021/12/22 06:10:53;;;;;;;;;;;-3.90;99.90;;;;;;6150687;23;19924;-84
2021/12/22 06:13:18;;;;;;;;;;;-3.90;99.90;;;;;;6153463;23;19927;-84
2021/12/22 06:15:44;;;;;;;;;;;-3.90;99.90;;;;;;6153621;23;19916;-83
2021/12/22 06:18:14;;;;;;;;;;;-3.40;99.90;;;;;;6149112;23;19943;-83
2021/12/22 06:20:39;;;;;;;;;;;-3.90;99.90;;;;;;6175549;23;19921;-83
2021/12/22 06:23:05;;;;;;;;;;;-3.90;99.90;;;;;;6152404;23;20003;-83
2021/12/22 06:25:30;;;;;;;;;;;-3.90;99.90;;;;;;6163249;23;19924;-84
2021/12/22 06:27:56;;;;;;;;;;;-3.90;99.90;;;;;;6155771;23;19920;-82
2021/12/22 06:30:21;;;;;;;;;;;-3.90;99.90;;;;;;6150028;23;20408;-83
2021/12/22 06:32:51;;;;;;;;;;;-3.90;99.90;;;;;;6151333;23;19940;-85
2021/12/22 06:35:17;;;;;;;;;;;-3.90;99.90;;;;;;6151065;23;19923;-83
2021/12/22 06:37:46;;;;;;;;;;;-3.90;99.90;;;;;;6180373;23;19924;-84
2021/12/22 06:40:12;;;;;;;;;;;-3.90;99.90;;;;;;6177347;23;19916;-83
2021/12/22 06:42:39;;;;;;;;;;;-3.90;99.90;;;;;;6151201;23;19924;-83
2021/12/22 06:45:05;;;;;;;;;;;-3.90;99.90;;;;;;6175245;23;19979;-83
2021/12/22 06:47:31;;;;;;;;;;;-3.90;99.90;;;;;;6177333;23;19926;-83
2021/12/22 06:49:56;;;;;;;;;;;-3.90;99.90;;;;;;6152597;23;20003;-83
2021/12/22 06:52:22;;;;;;;;;;;-3.80;99.90;;;;;;6150698;23;20420;-83
2021/12/22 06:54:48;;;;;;;;;;;-3.60;99.90;;;;;;6152877;23;19921;-83
2021/12/22 06:57:18;;;;;;;;;;;-3.90;99.90;;;;;;6150820;23;19920;-83
2021/12/22 06:59:45;;;;;;;;;;;-3.80;99.90;;;;;;6150510;23;19947;-83
2021/12/22 07:02:11;;;;;;;;;;;-3.80;99.90;;;;;;6152104;23;20274;-83
2021/12/22 07:04:45;;;;;;;;;;;-3.80;99.90;;;;;;6182434;23;20000;-83
2021/12/22 07:07:11;;;;;;;;;;;-3.80;99.90;;;;;;6154005;23;19920;-82
2021/12/22 07:09:36;;;;;;;;;;;-3.90;99.90;;;;;;6159057;23;19919;-83
2021/12/22 07:12:02;;;;;;;;;;;-3.80;99.90;;;;;;6163724;23;19990;-84
2021/12/22 07:14:28;;;;;;;;;;;-3.90;99.90;;;;;;6151226;23;19967;-83
2021/12/22 07:16:55;;;;;;;;;;;-3.90;99.90;;;;;;6151619;23;20252;-83
2021/12/22 07:19:20;;;;;;;;;;;-3.80;99.90;;;;;;6155377;23;19920;-82
2021/12/22 07:21:49;;;;;;;;;;;-3.80;99.90;;;;;;6153709;23;19924;-83
2021/12/22 07:24:14;;;;;;;;;;;-3.80;99.90;;;;;;6153300;23;19971;-83
2021/12/22 07:26:40;;;;;;;;;;;-2.70;99.90;;;;;;6152953;23;19944;-82
2021/12/22 07:29:05;;;;;;;;;;;-3.80;99.90;;;;;;6153623;23;19927;-82
2021/12/22 07:31:31;;;;;;;;;;;-3.80;99.90;;;;;;6155300;23;19932;-83
2021/12/22 07:34:00;;;;;;;;;;;-3.80;99.90;;;;;;6152234;23;19924;-82
2021/12/22 07:36:25;;;;;;;;;;;-3.80;99.90;;;;;;6152259;23;19931;-82
2021/12/22 07:38:55;;;;;;;;;;;-3.80;99.90;;;;;;6155337;23;19920;-84
2021/12/22 07:41:21;;;;;;;;;;;-3.80;99.90;;;;;;6154399;23;19921;-84
2021/12/22 07:43:46;;;;;;;;;;;-3.80;99.90;;;;;;6178776;23;19931;-83
2021/12/22 07:46:12;;;;;;;;;;;-3.80;99.90;;;;;;6155056;23;19924;-83
2021/12/22 07:48:37;;;;;;;;;;;-3.80;99.90;;;;;;6154592;23;19916;-83
2021/12/22 07:51:03;;;;;;;;;;;-3.80;99.90;;;;;;6153223;23;19995;-82
2021/12/22 07:53:31;;;;;;;;;;;-3.80;99.90;;;;;;6181147;23;19920;-82
2021/12/22 07:55:58;;;;;;;;;;;-3.80;99.90;;;;;;6168493;23;19943;-82
2021/12/22 07:58:25;;;;;;;;;;;-3.80;99.90;;;;;;6158764;23;19927;-82
2021/12/22 08:00:52;;;;;;;;;;;-3.80;99.90;;;;;;6154702;23;19924;-82
2021/12/22 08:03:18;;;;;;;;;;;-3.80;99.90;;;;;;6179569;23;19924;-82
2021/12/22 08:05:43;;;;;;;;;;;-3.70;99.90;;;;;;6154005;23;19930;-82
2021/12/22 08:08:09;;;;;;;;;;;-3.70;99.90;;;;;;6154393;23;19916;-82
2021/12/22 08:10:35;;;;;;;;;;;-3.70;99.90;;;;;;6153633;23;19924;-82
2021/12/22 08:13:00;;;;;;;;;;;-3.70;99.90;;;;;;6153509;23;20329;-83
2021/12/22 08:15:26;;;;;;;;;;;-3.60;99.90;;;;;;6152931;23;19955;-83
2021/12/22 08:17:52;;;;;;;;;;;-3.60;99.90;;;;;;6153900;23;19920;-83
2021/12/22 08:20:19;;;;;;;;;;;-3.50;99.90;;;;;;6153409;23;19928;-83
2021/12/22 08:22:44;;;;;;;;;;;-3.50;99.90;;;;;;6179860;23;19920;-83
2021/12/22 08:25:10;;;;;;;;;;;-3.40;99.90;;;;;;6153792;23;19973;-84
2021/12/22 08:27:36;;;;;;;;;;;-1.90;99.90;;;;;;6153495;23;20733;-83
2021/12/22 08:30:03;;;;;;;;;;;-3.30;99.90;;;;;;6152961;23;19930;-82
2021/12/22 08:32:28;;;;;;;;;;;-3.30;99.90;;;;;;6153736;23;19956;-84
2021/12/22 08:34:56;;;;;;;;;;;-3.20;99.90;;;;;;6153852;23;19927;-86
2021/12/22 08:40:06;;;;;;;;;;;-3.20;99.90;;;;;;6161774;23;19970;-83
2021/12/22 08:42:32;;;;;;;;;;;-3.20;99.90;;;;;;6158861;23;20273;-83
2021/12/22 08:45:04;;;;;;;;;;;-3.20;99.90;;;;;;6180230;23;19920;-83
2021/12/22 08:47:30;;;;;;;;;;;-3.10;99.90;;;;;;6152850;23;20466;-83
2021/12/22 08:49:56;;;;;;;;;;;-3.10;99.90;;;;;;6154004;23;19924;-84
2021/12/22 08:52:21;;;;;;;;;;;-3.10;99.90;;;;;;6151543;23;19974;-84
2021/12/22 08:54:47;;;;;;;;;;;-3.10;99.90;;;;;;6153707;23;19924;-83
2021/12/22 08:57:12;;;;;;;;;;;-3.10;99.90;;;;;;6152542;23;19916;-83
2021/12/22 08:59:38;;;;;;;;;;;-3.00;99.90;;;;;;6152452;23;20031;-84
2021/12/22 09:02:04;;;;;;;;;;;-3.00;99.90;;;;;;6153297;23;19991;-84
2021/12/22 09:04:30;;;;;;;;;;;-3.00;99.90;;;;;;6153437;23;20004;-84
2021/12/22 09:06:55;;;;;;;;;;;-3.00;99.90;;;;;;6150947;23;19920;-84
2021/12/22 09:09:21;;;;;;;;;;;-2.90;99.90;;;;;;6153058;23;19920;-84
2021/12/22 09:11:47;;;;;;;;;;;-2.80;99.90;;;;;;6153759;23;19921;-85
2021/12/22 09:14:13;;;;;;;;;;;-2.70;99.90;;;;;;6176475;23;19975;-84
2021/12/22 09:16:40;;;;;;;;;;;-2.70;99.90;;;;;;6150055;23;19975;-84
2021/12/22 09:19:06;;;;;;;;;;;-2.70;99.90;;;;;;6151761;23;19952;-85
2021/12/22 09:21:31;;;;;;;;;;;-0.30;99.90;;;;;;6152574;23;19948;-86
2021/12/22 09:23:57;;;;;;;;;;;-2.50;99.90;;;;;;6160180;23;19948;-86
2021/12/22 09:26:23;;;;;;;;;;;-2.50;99.90;;;;;;6177032;23;19920;-86
2021/12/22 09:28:52;;;;;;;;;;;-2.40;99.90;;;;;;6150971;23;19920;-84
2021/12/22 09:31:35;;;;;;;;;;;-2.40;99.90;;;;;;6177661;23;19924;-86
2021/12/22 09:34:01;;;;;;;;;;;-2.30;99.90;;;;;;6153548;23;20352;-85
2021/12/22 09:36:30;;;;;;;;;;;-2.10;99.90;;;;;;6124740;23;19921;-85
2021/12/22 09:38:55;;;;;;;;;;;-2.10;99.90;;;;;;6152536;23;20355;-85
2021/12/22 09:41:24;;;;;;;;;;;-0.80;99.90;;;;;;6150740;23;19921;-86
2021/12/22 09:43:59;;;;;;;;;;;-2.00;99.90;;;;;;6152381;23;19920;-86
2021/12/22 09:46:41;;;;;;;;;;;-0.40;99.90;;;;;;6149556;23;19999;-85
2021/12/22 09:49:19;;;;;;;;;;;-1.40;99.90;;;;;;6151957;23;19928;-85
2021/12/22 09:54:30;;;;;;;;;;;0.00;99.90;;;;;;6155206;23;20001;-86
2021/12/22 09:56:55;;;;;;;;;;;-1.10;99.90;;;;;;6183981;23;19920;-84
2021/12/22 09:59:21;;;;;;;;;;;-1.10;99.90;;;;;;6155958;23;19992;-88
2021/12/22 10:01:46;;;;;;;;;;;-1.00;99.90;;;;;;6156520;23;19947;-86
2021/12/22 10:04:16;;;;;;;;;;;-0.90;99.90;;;;;;6156913;23;20009;-86
2021/12/22 10:06:42;;;;;;;;;;;-0.80;99.90;;;;;;6157751;23;19924;-86
2021/12/22 10:09:07;;;;;;;;;;;-0.70;99.90;;;;;;6156328;23;19947;-86
2021/12/22 10:11:42;;;;;;;;;;;-0.40;99.90;;;;;;6155977;23;19936;-86
2021/12/22 10:14:24;;;;;;;;;;;0.10;99.90;;;;;;6152453;23;20028;-86
2021/12/22 10:16:51;;;;;;;;;;;0.50;99.90;;;;;;6151601;23;20008;-88
2021/12/22 10:19:17;;;;;;;;;;;0.80;99.90;;;;;;6151643;23;20187;-85
2021/12/22 10:21:51;;;;;;;;;;;1.00;99.90;;;;;;6153068;23;19995;-86
2021/12/22 10:24:17;;;;;;;;;;;1.10;99.90;;;;;;6155341;23;19920;-86
2021/12/22 10:26:43;;;;;;;;;;;1.30;99.90;;;;;;6157426;23;19946;-86
2021/12/22 10:29:08;;;;;;;;;;;1.50;99.90;;;;;;6152311;23;19920;-87
2021/12/22 10:31:41;;;;;;;;;;;1.60;99.90;;;;;;6158212;23;20680;-87
2021/12/22 10:34:09;;;;;;;;;;;1.70;99.90;;;;;;6180759;23;20006;-87
2021/12/22 10:36:47;;;;;;;;;;;1.60;99.90;;;;;;6155918;23;19948;-88
2021/12/22 10:39:39;;;;;;;;;;;1.80;99.90;;;;;;6176951;23;20132;-85
2021/12/22 10:42:06;;;;;;;;;;;2.20;99.90;;;;;;6149137;23;20031;-88
2021/12/22 10:44:36;;;;;;;;;;;2.50;99.90;;;;;;6157042;23;19924;-86
2021/12/22 10:47:32;;;;;;;;;;;2.80;99.90;;;;;;6161776;23;19956;-87
2021/12/22 10:50:06;;;;;;;;;;;2.80;99.90;;;;;;6162158;23;19934;-88
2021/12/22 10:52:32;;;;;;;;;;;2.30;99.90;;;;;;6186015;23;19987;-88
2021/12/22 10:55:11;;;;;;;;;;;1.80;99.90;;;;;;6157644;23;19920;-87
2021/12/22 10:57:38;;;;;;;;;;;1.50;99.90;;;;;;6182361;23;19983;-88
2021/12/22 11:00:25;;;;;;;;;;;1.40;99.90;;;;;;6157447;23;19947;-86
2021/12/22 11:03:04;;;;;;;;;;;1.20;99.90;;;;;;6175114;23;19935;-86
2021/12/22 11:05:30;;;;;;;;;;;1.10;99.90;;;;;;6157199;23;19935;-93
2021/12/22 11:07:57;;;;;;;;;;;0.90;99.90;;;;;;6158164;23;19924;-91
2021/12/22 11:10:26;;;;;;;;;;;0.90;99.90;;;;;;6157591;23;19990;-88
2021/12/22 11:13:05;;;;;;;;;;;0.80;99.90;;;;;;6154895;23;19928;-92
2021/12/22 11:15:39;;;;;;;;;;;0.80;99.90;;;;;;6128680;23;19924;-91
2021/12/22 11:18:07;;;;;;;;;;;0.70;99.90;;;;;;6154393;23;20360;-91
2021/12/22 11:20:33;;;;;;;;;;;0.60;99.90;;;;;;6154544;23;19935;-87
2021/12/22 11:23:04;;;;;;;;;;;0.50;99.90;;;;;;6155171;23;20068;-90
2021/12/22 11:25:30;;;;;;;;;;;0.40;99.90;;;;;;6153335;23;19939;-88
2021/12/22 11:27:58;;;;;;;;;;;0.20;99.90;;;;;;6151957;23;20003;-89
2021/12/22 11:30:26;;;;;;;;;;;0.10;99.90;;;;;;6153918;23;19920;-89
2021/12/22 11:32:52;;;;;;;;;;;0.00;99.90;;;;;;6105620;23;19936;-90
2021/12/22 11:35:18;;;;;;;;;;;0.00;99.90;;;;;;6163575;23;19912;-88
2021/12/22 11:37:44;;;;;;;;;;;0.00;99.90;;;;;;6159547;23;19921;-89
2021/12/22 11:40:11;;;;;;;;;;;-0.10;99.90;;;;;;6158935;23;19920;-94
2021/12/22 11:42:40;;;;;;;;;;;-0.10;99.90;;;;;;6181900;23;20274;-94
2021/12/22 11:45:11;;;;;;;;;;;0.00;99.90;;;;;;6169351;23;19924;-92
2021/12/22 11:47:41;;;;;;;;;;;-0.10;99.90;;;;;;6165253;23;19929;-89
2021/12/22 11:50:13;;;;;;;;;;;-0.10;99.90;;;;;;6160447;23;19985;-95
2021/12/22 11:52:53;;;;;;;;;;;-0.10;99.90;;;;;;6191535;23;19924;-93
2021/12/22 11:55:21;;;;;;;;;;;-0.10;99.90;;;;;;6169231;23;19921;-92
2021/12/22 11:57:47;;;;;;;;;;;-0.60;99.90;;;;;;6196654;23;20201;-95
2021/12/22 12:00:24;;;;;;;;;;;-0.10;99.90;;;;;;6172562;23;19921;-93
2021/12/22 12:02:51;;;;;;;;;;;-0.10;99.90;;;;;;6168336;23;19920;-93
2021/12/22 12:05:24;;;;;;;;;;;-0.10;99.90;;;;;;6165885;23;19924;-96
2021/12/22 12:08:02;;;;;;;;;;;-0.20;99.90;;;;;;6170597;23;20291;-93
2021/12/22 12:10:42;;;;;;;;;;;-0.20;99.90;;;;;;6194666;23;20296;-96
2021/12/22 12:25:11;;;;;;;;;;;-0.20;99.90;;;;;;6147748;23;20412;-94
2021/12/22 12:27:53;;;;;;;;;;;-0.20;99.90;;;;;;6012633;23;19930;-93
2021/12/22 12:30:41;;;;;;;;;;;-1.20;99.90;;;;;;6040096;23;19967;-92
2021/12/22 12:33:07;;;;;;;;;;;-0.30;99.90;;;;;;6136597;23;19960;-96
2021/12/22 12:35:48;;;;;;;;;;;2.20;99.90;;;;;;6128888;23;19924;-92
2021/12/22 12:38:18;;;;;;;;;;;0.80;99.90;;;;;;6154271;23;19921;-93
2021/12/22 12:41:11;;;;;;;;;;;-0.30;99.90;;;;;;6128428;23;19925;-92
2021/12/22 12:43:40;;;;;;;;;;;-0.30;99.90;;;;;;6125773;23;19925;-94
2021/12/22 12:49:11;;;;;;;;;;;-0.20;99.90;;;;;;6133942;23;19987;-95
2021/12/22 12:51:40;;;;;;;;;;;-0.30;99.90;;;;;;6112660;23;19939;-93
2021/12/22 12:54:06;;;;;;;;;;;-0.30;99.90;;;;;;6153245;23;20230;-93
2021/12/22 12:56:49;;;;;;;;;;;-0.40;99.90;;;;;;6140843;23;19924;-91
2021/12/22 12:59:16;;;;;;;;;;;-0.30;99.90;;;;;;6135463;23;19920;-93
2021/12/22 13:01:50;;;;;;;;;;;-0.40;99.90;;;;;;6142003;23;19932;-94
2021/12/22 13:04:30;;;;;;;;;;;-0.40;99.90;;;;;;6146310;23;19921;-95
2021/12/22 13:07:15;;;;;;;;;;;-0.30;99.90;;;;;;6171074;23;19908;-96
2021/12/22 13:09:47;;;;;;;;;;;-0.30;99.90;;;;;;6167076;23;19921;-92
2021/12/22 13:17:46;;;;;;;;;;;-0.40;99.90;;;;;;6127990;23;19925;-93
2021/12/22 13:20:27;;;;;;;;;;;-0.40;99.90;;;;;;6152628;23;19924;-92
2021/12/22 13:22:54;;;;;;;;;;;-0.40;99.90;;;;;;6155890;23;19925;-88
2021/12/22 13:25:24;;;;;;;;;;;-0.50;99.90;;;;;;6125676;23;19928;-96
2021/12/22 13:28:18;;;;;;;;;;;-0.50;99.90;;;;;;6125029;23;19920;-91
2021/12/22 13:30:58;;;;;;;;;;;0.00;99.90;;;;;;6122593;23;19919;-91
2021/12/22 13:33:34;;;;;;;;;;;-0.50;99.90;;;;;;6149217;23;19921;-90
2021/12/22 13:36:08;;;;;;;;;;;-0.50;99.90;;;;;;6146883;23;20028;-91
2021/12/22 13:38:44;;;;;;;;;;;-0.50;99.90;;;;;;6118425;23;19927;-85
2021/12/22 13:44:00;;;;;;;;;;;-0.50;99.90;;;;;;6121405;23;19973;-89
2021/12/22 13:46:42;;;;;;;;;;;-1.90;99.90;;;;;;6118311;23;20286;-87
2021/12/22 13:49:21;;;;;;;;;;;0.40;99.90;;;;;;6156249;23;19925;-88
2021/12/22 13:51:47;;;;;;;;;;;0.10;99.90;;;;;;6125290;23;20317;-91
2021/12/22 13:54:15;;;;;;;;;;;-0.60;99.90;;;;;;6122462;23;19972;-88
2021/12/22 13:56:42;;;;;;;;;;;-0.60;99.90;;;;;;6098240;23;19921;-89
2021/12/22 13:59:15;;;;;;;;;;;-0.70;99.90;;;;;;6124342;23;19954;-91
2021/12/22 14:01:42;;;;;;;;;;;-0.60;99.90;;;;;;6123330;23;19967;-89
2021/12/22 14:04:09;;;;;;;;;;;-0.60;99.90;;;;;;6123812;23;19921;-94
2021/12/22 14:06:46;;;;;;;;;;;-0.70;99.90;;;;;;6148726;23;19953;-89
2021/12/22 14:09:14;;;;;;;;;;;-0.60;99.90;;;;;;6146377;23;20301;-93
2021/12/22 14:11:44;;;;;;;;;;;-0.60;99.90;;;;;;6146964;23;20247;-92
2021/12/22 14:14:20;;;;;;;;;;;-0.60;99.90;;;;;;6118486;23;20214;-91
2021/12/22 14:16:47;;;;;;;;;;;-0.70;99.90;;;;;;6149171;23;19920;-92
2021/12/22 14:19:19;;;;;;;;;;;-0.70;99.90;;;;;;6121366;23;19980;-93
2021/12/22 14:21:47;;;;;;;;;;;-0.70;99.90;;;;;;6144962;23;19967;-89
2021/12/22 14:24:19;;;;;;;;;;;-0.80;99.90;;;;;;6145033;23;19936;-92
2021/12/22 14:26:48;;;;;;;;;;;-0.80;99.90;;;;;;6148076;23;20322;-91
2021/12/22 14:29:13;;;;;;;;;;;-0.80;99.90;;;;;;6116343;23;19921;-92
2021/12/22 14:32:06;;;;;;;;;;;-0.80;99.90;;;;;;6124767;23;19921;-93
2021/12/22 14:34:34;;;;;;;;;;;-0.80;99.90;;;;;;6132126;23;19921;-93
2021/12/22 14:37:01;;;;;;;;;;;-0.90;99.90;;;;;;6132462;23;19921;-90
2021/12/22 14:39:38;;;;;;;;;;;-0.90;99.90;;;;;;6149442;23;19921;-91
2021/12/22 14:42:20;;;;;;;;;;;-0.90;99.90;;;;;;6148701;23;19957;-92
2021/12/22 14:44:45;;;;;;;;;;;-0.90;99.90;;;;;;6148639;23;19927;-90
2021/12/22 14:47:21;;;;;;;;;;;-0.90;99.90;;;;;;6148207;23;19992;-91
2021/12/22 14:49:48;;;;;;;;;;;-1.00;99.90;;;;;;6149179;23;19992;-87
2021/12/22 14:52:14;;;;;;;;;;;-1.00;99.90;;;;;;6149504;23;20067;-91
2021/12/22 14:54:40;;;;;;;;;;;-1.00;99.90;;;;;;6129014;23;19945;-90
2021/12/22 14:57:05;;;;;;;;;;;-1.00;99.90;;;;;;6161336;23;19925;-94
2021/12/22 14:59:34;;;;;;;;;;;-1.10;99.90;;;;;;6135307;23;20004;-91
2021/12/22 15:02:00;;;;;;;;;;;-1.00;99.90;;;;;;6158216;23;20322;-92
2021/12/22 15:04:27;;;;;;;;;;;-1.10;99.90;;;;;;6150296;23;20028;-92
2021/12/22 15:06:52;;;;;;;;;;;-1.10;99.90;;;;;;6126643;23;19933;-89